createdAt,value
2023-03-03T00:00:04.996Z,18.17
2023-03-03T00:02:38.768Z,16.20
2023-03-03T00:05:10.231Z,17.53
2023-03-03T00:07:39.233Z,16.37
2023-03-03T00:10:10.589Z,17.03
2023-03-03T00:12:48.889Z,16.80
2023-03-03T00:15:21.022Z,19.70
2023-03-03T00:17:53.443Z,15.00
2023-03-03T00:20:35.040Z,16.40
2023-03-03T00:23:18.323Z,17.90
2023-03-03T00:25:52.722Z,17.20
2023-03-03T00:28:28.690Z,16.43
2023-03-03T00:31:01.794Z,15.90
2023-03-03T00:33:34.716Z,17.87
2023-03-03T00:36:31.457Z,19.10
2023-03-03T00:39:26.153Z,17.33
2023-03-03T00:41:57.357Z,17.17
2023-03-03T00:44:41.636Z,15.37
2023-03-03T00:47:31.223Z,19.37
2023-03-03T00:50:34.536Z,17.87
2023-03-03T00:53:06.648Z,17.73
2023-03-03T00:55:36.348Z,17.17
2023-03-03T00:58:06.790Z,18.00
2023-03-03T01:00:36.340Z,16.73
2023-03-03T01:03:08.802Z,18.03
2023-03-03T01:05:38.430Z,14.13
2023-03-03T01:08:08.343Z,17.80
2023-03-03T01:10:42.005Z,17.67
2023-03-03T01:13:24.367Z,16.43
2023-03-03T01:15:57.069Z,15.47
2023-03-03T01:18:31.972Z,17.10
2023-03-03T01:21:02.510Z,15.70
2023-03-03T01:23:31.643Z,16.83
2023-03-03T01:26:03.325Z,19.07
2023-03-03T01:28:37.467Z,18.07
2023-03-03T01:31:09.464Z,17.90
2023-03-03T01:33:40.861Z,16.80
2023-03-03T01:36:10.075Z,16.70
2023-03-03T01:38:51.823Z,15.70
2023-03-03T01:41:23.076Z,14.63
2023-03-03T01:43:56.302Z,16.97
2023-03-03T01:46:57.043Z,15.77
2023-03-03T01:49:37.664Z,17.57
2023-03-03T01:52:17.348Z,16.87
2023-03-03T01:54:52.902Z,15.63
2023-03-03T01:57:26.563Z,14.53
2023-03-03T02:00:06.103Z,16.37
2023-03-03T02:02:38.435Z,17.77
2023-03-03T02:05:16.100Z,15.57
2023-03-03T02:07:48.305Z,17.47
2023-03-03T02:10:23.256Z,14.73
2023-03-03T02:12:57.600Z,16.17
2023-03-03T02:15:32.848Z,17.17
2023-03-03T02:18:06.132Z,16.80
2023-03-03T02:20:50.847Z,16.53
2023-03-03T02:23:33.859Z,15.07
2023-03-03T02:26:19.600Z,17.17
2023-03-03T02:28:54.257Z,16.83
2023-03-03T02:31:27.957Z,15.60
2023-03-03T02:33:57.419Z,15.93
2023-03-03T02:36:38.315Z,15.47
2023-03-03T02:39:13.702Z,13.90
2023-03-03T02:41:48.455Z,14.90
2023-03-03T02:44:20.825Z,15.70
2023-03-03T02:46:55.168Z,15.17
2023-03-03T02:49:31.272Z,12.67
2023-03-03T02:52:00.830Z,19.40
2023-03-03T02:54:34.239Z,14.90
2023-03-03T02:57:14.999Z,17.10
2023-03-03T02:59:46.189Z,12.63
2023-03-03T03:02:23.243Z,14.83
2023-03-03T03:04:55.266Z,15.57
2023-03-03T03:07:25.034Z,14.67
2023-03-03T03:09:57.003Z,16.73
2023-03-03T03:12:35.066Z,15.87
2023-03-03T03:15:14.885Z,15.77
2023-03-03T03:17:47.043Z,15.40
2023-03-03T03:20:21.336Z,17.00
2023-03-03T03:22:55.117Z,15.13
2023-03-03T03:25:35.234Z,15.73
2023-03-03T03:28:06.125Z,16.03
2023-03-03T03:30:36.934Z,15.90
2023-03-03T03:33:15.356Z,18.73
2023-03-03T03:35:47.210Z,15.47
2023-03-03T03:38:21.564Z,16.13
2023-03-03T03:40:54.054Z,15.27
2023-03-03T03:43:43.076Z,15.07
2023-03-03T03:46:13.515Z,16.87
2023-03-03T03:48:46.989Z,14.10
2023-03-03T03:51:17.557Z,17.23
2023-03-03T03:53:55.500Z,15.60
2023-03-03T03:56:24.347Z,14.73
2023-03-03T03:58:58.034Z,16.73
2023-03-03T04:01:29.868Z,17.53
2023-03-03T04:04:07.113Z,17.07
2023-03-03T04:06:36.543Z,15.10
2023-03-03T04:09:06.014Z,15.13
2023-03-03T04:11:34.832Z,14.73
2023-03-03T04:14:05.379Z,15.07
2023-03-03T04:16:39.792Z,13.80
2023-03-03T04:19:11.404Z,15.50
2023-03-03T04:21:46.122Z,16.17
2023-03-03T04:24:16.395Z,14.33
2023-03-03T04:26:55.584Z,13.90
2023-03-03T04:29:32.753Z,12.97
2023-03-03T04:32:03.959Z,14.80
2023-03-03T04:34:42.562Z,13.47
2023-03-03T04:37:12.579Z,16.93
2023-03-03T04:40:01.050Z,11.63
2023-03-03T04:42:34.005Z,14.33
2023-03-03T04:45:20.838Z,13.63
2023-03-03T04:47:51.200Z,12.50
2023-03-03T04:50:25.900Z,14.00
2023-03-03T04:52:54.834Z,12.27
2023-03-03T04:55:32.972Z,10.80
2023-03-03T04:58:04.217Z,13.20
2023-03-03T05:00:36.247Z,11.63
2023-03-03T05:03:07.545Z,10.73
2023-03-03T05:05:39.571Z,11.57
2023-03-03T05:08:16.276Z,13.73
2023-03-03T05:10:56.472Z,12.17
2023-03-03T05:13:28.118Z,10.23
2023-03-03T05:16:04.021Z,13.67
2023-03-03T05:18:37.673Z,14.03
2023-03-03T05:21:06.997Z,15.73
2023-03-03T05:23:39.072Z,12.93
2023-03-03T05:26:07.867Z,15.00
2023-03-03T05:28:45.464Z,14.23
2023-03-03T05:31:18.671Z,15.83
2023-03-03T05:33:52.188Z,13.47
2023-03-03T05:36:24.167Z,13.90
2023-03-03T05:39:01.999Z,12.87
2023-03-03T05:41:30.768Z,13.43
2023-03-03T05:43:59.766Z,12.83
2023-03-03T05:46:30.020Z,11.20
2023-03-03T05:49:01.494Z,12.27
2023-03-03T05:51:30.367Z,10.00
2023-03-03T05:53:59.348Z,11.00
2023-03-03T05:56:30.874Z,9.77
2023-03-03T05:59:10.032Z,9.73
2023-03-03T06:01:41.805Z,7.97
2023-03-03T06:04:10.772Z,12.77
2023-03-03T06:06:44.108Z,7.97
2023-03-03T06:09:14.698Z,6.87
2023-03-03T06:11:49.343Z,9.27
2023-03-03T06:14:21.513Z,11.17
2023-03-03T06:16:52.503Z,7.47
2023-03-03T06:19:24.380Z,11.63
2023-03-03T06:21:58.842Z,9.90
2023-03-03T06:24:34.357Z,11.63
2023-03-03T06:27:05.293Z,8.93
2023-03-03T06:29:37.933Z,11.77
2023-03-03T06:32:14.906Z,12.87
2023-03-03T06:34:50.725Z,10.17
2023-03-03T06:37:22.646Z,11.40
2023-03-03T06:39:55.436Z,10.67
2023-03-03T06:42:27.326Z,10.13
2023-03-03T06:44:58.291Z,10.73
2023-03-03T06:47:30.724Z,11.37
2023-03-03T06:50:04.933Z,11.67
2023-03-03T06:52:38.172Z,9.67
2023-03-03T06:55:13.993Z,11.73
2023-03-03T06:57:45.760Z,10.60
2023-03-03T07:00:25.799Z,12.10
2023-03-03T07:03:11.316Z,10.20
2023-03-03T07:05:46.535Z,10.40
2023-03-03T07:08:18.249Z,11.13
2023-03-03T07:10:49.454Z,10.47
2023-03-03T07:13:45.283Z,10.80
2023-03-03T07:16:27.917Z,11.80
2023-03-03T07:19:04.506Z,9.20
2023-03-03T07:21:36.938Z,11.33
2023-03-03T07:24:27.040Z,11.23
2023-03-03T07:27:02.926Z,8.97
2023-03-03T07:29:38.439Z,11.23
2023-03-03T07:32:26.494Z,11.33
2023-03-03T07:34:59.328Z,12.93
2023-03-03T07:37:33.833Z,11.43
2023-03-03T07:40:09.873Z,9.97
2023-03-03T07:42:47.780Z,11.27
2023-03-03T07:45:30.171Z,12.70
2023-03-03T07:48:21.567Z,11.60
2023-03-03T07:50:55.114Z,10.27
2023-03-03T07:53:30.266Z,13.33
2023-03-03T07:56:01.960Z,11.37
2023-03-03T07:58:39.647Z,12.00
2023-03-03T08:01:41.183Z,13.47
2023-03-03T08:04:24.303Z,13.93
2023-03-03T08:06:57.920Z,10.07
2023-03-03T08:09:53.188Z,11.53
2023-03-03T08:12:48.450Z,8.90
2023-03-03T08:15:28.408Z,12.60
2023-03-03T08:18:10.508Z,12.70
2023-03-03T08:20:52.174Z,9.77
2023-03-03T08:23:24.258Z,12.63
2023-03-03T08:25:59.918Z,12.17
2023-03-03T08:28:29.483Z,12.20
2023-03-03T08:31:13.247Z,9.60
2023-03-03T08:33:55.473Z,9.30
2023-03-03T08:36:27.225Z,11.20
2023-03-03T08:38:58.089Z,12.03
2023-03-03T08:41:27.393Z,10.03
2023-03-03T08:43:56.719Z,11.30
2023-03-03T08:46:28.818Z,10.63
2023-03-03T08:48:58.296Z,9.33
2023-03-03T08:51:27.697Z,11.60
2023-03-03T08:53:58.114Z,10.33
2023-03-03T08:56:36.206Z,11.13
2023-03-03T08:59:17.795Z,7.97
2023-03-03T09:01:51.887Z,7.47
2023-03-03T09:04:22.120Z,8.63
2023-03-03T09:06:54.591Z,8.23
2023-03-03T09:09:30.293Z,9.50
2023-03-03T09:12:05.092Z,9.80
2023-03-03T09:14:36.995Z,8.87
2023-03-03T09:17:28.446Z,9.57
2023-03-03T09:20:04.717Z,8.17
2023-03-03T09:22:40.565Z,8.57
2023-03-03T09:25:25.279Z,8.43
2023-03-03T09:27:57.864Z,8.83
2023-03-03T09:30:39.697Z,9.30
2023-03-03T09:33:50.027Z,9.67
2023-03-03T09:36:27.091Z,10.03
2023-03-03T09:38:57.105Z,8.47
2023-03-03T09:42:08.900Z,11.10
2023-03-03T09:44:55.794Z,7.70
2023-03-03T09:47:40.808Z,9.90
2023-03-03T09:50:20.302Z,9.17
2023-03-03T09:52:58.412Z,8.03
2023-03-03T09:55:39.292Z,11.43
2023-03-03T09:58:45.762Z,9.83
2023-03-03T10:01:48.547Z,10.20
2023-03-03T10:04:26.728Z,10.90
2023-03-03T10:07:02.877Z,8.93
2023-03-03T10:09:59.194Z,9.50
2023-03-03T10:12:33.336Z,8.90
2023-03-03T10:15:34.085Z,8.40
2023-03-03T10:18:16.265Z,9.30
2023-03-03T10:21:03.473Z,9.63
2023-03-03T10:23:58.908Z,8.53
2023-03-03T10:27:10.619Z,8.60
2023-03-03T10:29:51.987Z,9.47
2023-03-03T10:32:38.256Z,10.93
2023-03-03T10:35:32.272Z,8.67
2023-03-03T10:38:18.044Z,9.73
2023-03-03T10:40:56.351Z,9.20
2023-03-03T10:43:48.696Z,11.30
2023-03-03T10:46:47.572Z,11.10
2023-03-03T10:49:27.013Z,10.47
2023-03-03T10:52:08.700Z,9.53
2023-03-03T10:54:53.938Z,8.87
2023-03-03T10:57:32.660Z,10.57
2023-03-03T11:00:17.935Z,11.97
2023-03-03T11:03:07.119Z,10.03
2023-03-03T11:05:44.629Z,8.30
2023-03-03T11:08:18.316Z,9.80
2023-03-03T11:10:53.820Z,8.73
2023-03-03T11:13:35.610Z,11.23
2023-03-03T11:16:32.038Z,10.57
2023-03-03T11:19:27.782Z,9.43
2023-03-03T11:22:08.180Z,9.77
2023-03-03T11:24:52.449Z,9.90
2023-03-03T11:27:40.161Z,11.20
2023-03-03T11:30:30.146Z,9.43
2023-03-03T11:33:07.509Z,10.10
2023-03-03T11:35:55.845Z,10.27
2023-03-03T11:38:53.354Z,11.90
2023-03-03T11:41:41.828Z,11.77
2023-03-03T11:44:22.521Z,10.13
2023-03-03T11:46:55.035Z,9.30
2023-03-03T11:49:30.363Z,11.20
2023-03-03T11:52:12.644Z,9.03
2023-03-03T11:54:49.662Z,9.73
2023-03-03T11:57:29.790Z,10.47
2023-03-03T12:00:09.509Z,10.13
2023-03-03T12:03:03.793Z,10.77
2023-03-03T12:05:44.661Z,10.07
2023-03-03T12:08:28.037Z,8.73
2023-03-03T12:11:05.730Z,9.60
2023-03-03T12:13:48.718Z,8.43
2023-03-03T12:16:27.751Z,9.47
2023-03-03T12:19:16.100Z,9.43
2023-03-03T12:22:04.539Z,9.70
2023-03-03T12:24:48.651Z,9.20
2023-03-03T12:27:29.990Z,10.43
2023-03-03T12:30:13.379Z,9.97
2023-03-03T12:33:00.438Z,9.67
2023-03-03T12:35:42.705Z,10.77
2023-03-03T12:38:21.503Z,11.30
2023-03-03T12:40:58.555Z,9.23
2023-03-03T12:43:49.690Z,10.53
2023-03-03T12:46:29.727Z,10.80
2023-03-03T12:49:00.965Z,9.47
2023-03-03T12:51:53.515Z,10.83
2023-03-03T12:54:46.984Z,10.47
2023-03-03T12:57:31.559Z,10.13
2023-03-03T13:00:25.811Z,9.23
2023-03-03T13:03:07.865Z,8.17
2023-03-03T13:05:54.318Z,9.60
2023-03-03T13:08:39.865Z,10.57
2023-03-03T13:11:30.594Z,8.63
2023-03-03T13:14:11.803Z,9.20
2023-03-03T13:16:53.194Z,9.30
2023-03-03T13:19:30.867Z,9.73
2023-03-03T13:22:08.522Z,8.87
2023-03-03T13:24:44.711Z,8.87
2023-03-03T13:27:20.623Z,10.67
2023-03-03T13:29:59.488Z,11.87
2023-03-03T13:32:38.461Z,9.43
2023-03-03T13:35:13.758Z,10.67
2023-03-03T13:37:51.660Z,11.33
2023-03-03T13:40:27.157Z,10.87
2023-03-03T13:43:02.822Z,9.53
2023-03-03T13:45:38.847Z,9.43
2023-03-03T13:48:29.865Z,9.33
2023-03-03T13:51:05.772Z,9.13
2023-03-03T13:53:54.616Z,9.93
2023-03-03T13:56:47.447Z,12.60
2023-03-03T13:59:25.847Z,10.37
2023-03-03T14:02:04.802Z,9.37
2023-03-03T14:04:48.554Z,8.93
2023-03-03T14:07:31.177Z,10.80
2023-03-03T14:10:10.119Z,10.10
2023-03-03T14:12:48.954Z,10.43
2023-03-03T14:15:26.548Z,9.93
2023-03-03T14:18:23.204Z,10.03
2023-03-03T14:21:09.524Z,9.37
2023-03-03T14:23:57.675Z,8.63
2023-03-03T14:26:27.302Z,11.17
2023-03-03T14:29:22.105Z,8.23
2023-03-03T14:31:54.371Z,11.03
2023-03-03T14:34:39.650Z,9.80
2023-03-03T14:37:29.920Z,9.10
2023-03-03T14:40:17.572Z,9.57
2023-03-03T14:42:56.971Z,9.80
2023-03-03T14:45:36.199Z,11.13
2023-03-03T14:48:16.487Z,10.20
2023-03-03T14:50:52.373Z,9.00
2023-03-03T14:53:35.333Z,10.97
2023-03-03T14:56:22.588Z,9.07
2023-03-03T14:58:52.783Z,8.77
2023-03-03T15:01:32.817Z,9.60
2023-03-03T15:04:03.702Z,8.07
2023-03-03T15:06:41.428Z,9.27
2023-03-03T15:09:32.775Z,9.50
2023-03-03T15:12:02.860Z,9.43
2023-03-03T15:14:36.547Z,9.13
2023-03-03T15:17:27.587Z,9.17
2023-03-03T15:20:23.726Z,10.53
2023-03-03T15:22:55.947Z,10.00
2023-03-03T15:25:43.478Z,11.23
2023-03-03T15:28:27.954Z,9.57
2023-03-03T15:31:02.248Z,10.47
2023-03-03T15:33:41.833Z,10.70
2023-03-03T15:36:16.003Z,9.93
2023-03-03T15:38:55.826Z,9.07
2023-03-03T15:41:45.478Z,10.83
2023-03-03T15:44:27.511Z,9.20
2023-03-03T15:47:12.443Z,8.80
2023-03-03T15:50:09.928Z,10.53
2023-03-03T15:52:49.557Z,10.10
2023-03-03T15:55:33.917Z,8.83
2023-03-03T15:58:19.405Z,10.13
2023-03-03T16:01:04.189Z,8.23
2023-03-03T16:03:37.474Z,10.03
2023-03-03T16:06:12.183Z,9.30
2023-03-03T16:08:49.732Z,8.67
2023-03-03T16:11:25.091Z,9.63
2023-03-03T16:14:05.146Z,8.57
2023-03-03T16:16:43.029Z,9.37
2023-03-03T16:19:30.986Z,8.80
2023-03-03T16:22:15.981Z,7.93
2023-03-03T16:24:53.924Z,8.50
2023-03-03T16:27:29.102Z,9.77
2023-03-03T16:30:12.960Z,8.13
2023-03-03T16:32:47.568Z,7.90
2023-03-03T16:35:23.669Z,9.97
2023-03-03T16:38:02.644Z,8.17
2023-03-03T16:40:34.673Z,7.97
2023-03-03T16:43:14.475Z,6.60
2023-03-03T16:45:44.692Z,8.07
2023-03-03T16:48:22.673Z,9.70
2023-03-03T16:51:17.322Z,10.07
2023-03-03T16:53:54.213Z,7.30
2023-03-03T16:56:24.854Z,9.57
2023-03-03T16:59:20.669Z,7.60
2023-03-03T17:01:57.618Z,11.30
2023-03-03T17:04:41.354Z,9.37
2023-03-03T17:07:20.333Z,8.23
2023-03-03T17:10:06.938Z,7.37
2023-03-03T17:12:49.884Z,7.67
2023-03-03T17:15:33.382Z,10.13
2023-03-03T17:18:13.555Z,8.43
2023-03-03T17:20:49.707Z,8.20
2023-03-03T17:23:41.477Z,7.60
2023-03-03T17:26:39.736Z,7.97
2023-03-03T17:29:25.250Z,7.43
2023-03-03T17:32:01.098Z,8.10
2023-03-03T17:34:44.747Z,12.10
2023-03-03T17:37:26.170Z,7.33
2023-03-03T17:40:06.840Z,8.27
2023-03-03T17:42:43.667Z,9.67
2023-03-03T17:45:14.062Z,9.90
2023-03-03T17:47:54.581Z,9.70
2023-03-03T17:50:57.254Z,9.93
2023-03-03T17:53:55.002Z,10.60
2023-03-03T17:56:29.081Z,11.47
2023-03-03T17:59:25.193Z,8.60
2023-03-03T18:02:41.754Z,7.80
2023-03-03T18:05:38.940Z,8.23
2023-03-03T18:08:28.810Z,11.43
2023-03-03T18:11:35.516Z,9.17
2023-03-03T18:14:39.082Z,9.10
2023-03-03T18:17:28.985Z,7.63
2023-03-03T18:20:12.540Z,8.20
2023-03-03T18:22:46.934Z,8.67
2023-03-03T18:25:17.754Z,7.27
2023-03-03T18:27:48.398Z,8.70
2023-03-03T18:30:25.252Z,8.87
2023-03-03T18:33:17.509Z,8.27
2023-03-03T18:35:51.457Z,8.67
2023-03-03T18:38:39.571Z,8.27
2023-03-03T18:41:13.021Z,9.27
2023-03-03T18:43:57.986Z,8.23
2023-03-03T18:46:53.152Z,9.97
2023-03-03T18:49:49.843Z,10.20
2023-03-03T18:52:23.115Z,8.07
2023-03-03T18:55:25.477Z,7.60
2023-03-03T18:58:37.040Z,8.50
2023-03-03T19:01:44.009Z,8.97
2023-03-03T19:04:21.952Z,8.37
2023-03-03T19:07:26.567Z,8.57
2023-03-03T19:10:01.418Z,8.23
2023-03-03T19:13:02.414Z,9.23
2023-03-03T19:15:54.636Z,7.93
2023-03-03T19:18:31.491Z,10.63
2023-03-03T19:21:03.252Z,8.70
2023-03-03T19:23:56.625Z,10.07
2023-03-03T19:26:59.943Z,9.17
2023-03-03T19:30:06.393Z,12.40
2023-03-03T19:33:10.163Z,10.73
2023-03-03T19:35:46.067Z,13.17
2023-03-03T19:38:28.010Z,8.83
2023-03-03T19:41:09.139Z,11.10
2023-03-03T19:43:50.191Z,11.98
2023-03-03T19:46:37.501Z,7.77
2023-03-03T19:49:15.262Z,9.03
2023-03-03T19:51:55.475Z,9.10
2023-03-03T19:54:45.938Z,8.03
2023-03-03T19:57:24.355Z,9.63
2023-03-03T20:00:00.414Z,8.97
2023-03-03T20:02:43.399Z,9.10
2023-03-03T20:05:21.973Z,8.20
2023-03-03T20:08:02.266Z,7.30
2023-03-03T20:10:40.264Z,9.97
2023-03-03T20:13:22.539Z,10.47
2023-03-03T20:15:58.898Z,8.67
2023-03-03T20:18:52.244Z,11.30
2023-03-03T20:21:32.257Z,9.33
2023-03-03T20:24:21.645Z,7.40
2023-03-03T20:26:59.143Z,7.83
2023-03-03T20:29:54.427Z,9.27
2023-03-03T20:32:40.587Z,8.23
2023-03-03T20:35:25.125Z,8.77
2023-03-03T20:38:08.231Z,6.57
2023-03-03T20:40:47.574Z,11.60
2023-03-03T20:43:29.009Z,8.97
2023-03-03T20:46:14.470Z,10.17
2023-03-03T20:49:09.997Z,10.10
2023-03-03T20:51:44.824Z,10.43
2023-03-03T20:54:22.247Z,9.23
2023-03-03T20:56:56.276Z,9.33
2023-03-03T20:59:33.447Z,10.40
2023-03-03T21:02:10.446Z,11.60
2023-03-03T21:04:39.516Z,14.63
2023-03-03T21:07:29.037Z,9.20
2023-03-03T21:10:15.005Z,8.30
2023-03-03T21:12:44.149Z,9.70
2023-03-03T21:15:33.664Z,8.00
2023-03-03T21:18:40.064Z,8.13
2023-03-03T21:21:10.371Z,8.87
2023-03-03T21:23:45.689Z,11.37
2023-03-03T21:26:50.885Z,8.20
2023-03-03T21:29:23.365Z,7.73
2023-03-03T21:31:54.421Z,7.90
2023-03-03T21:34:29.837Z,8.53
2023-03-03T21:37:02.634Z,8.73
2023-03-03T21:39:38.836Z,8.97
2023-03-03T21:42:12.131Z,8.53
2023-03-03T21:44:44.289Z,9.47
2023-03-03T21:47:15.008Z,8.47
2023-03-03T21:49:47.912Z,11.53
2023-03-03T21:52:21.084Z,8.67
2023-03-03T21:54:55.503Z,8.60
2023-03-03T21:57:25.177Z,8.97
2023-03-03T21:59:54.510Z,7.73
2023-03-03T22:02:26.085Z,8.83
2023-03-03T22:04:57.796Z,8.17
2023-03-03T22:07:28.664Z,9.03
2023-03-03T22:10:00.306Z,8.83
2023-03-03T22:12:29.137Z,9.10
2023-03-03T22:14:57.973Z,9.67
2023-03-03T22:17:26.912Z,9.97
2023-03-03T22:19:56.020Z,7.73
2023-03-03T22:22:27.022Z,6.80
2023-03-03T22:24:55.773Z,6.97
2023-03-03T22:27:26.114Z,8.17
2023-03-03T22:29:57.713Z,7.13
2023-03-03T22:32:26.756Z,8.43
2023-03-03T22:34:55.670Z,7.60
2023-03-03T22:37:26.532Z,8.93
2023-03-03T22:39:55.393Z,8.43
2023-03-03T22:42:34.489Z,9.13
2023-03-03T22:45:05.434Z,8.43
2023-03-03T22:47:34.238Z,9.77
2023-03-03T22:50:05.043Z,9.93
2023-03-03T22:52:36.934Z,9.40
2023-03-03T22:55:06.383Z,8.20
2023-03-03T22:57:36.645Z,10.53
2023-03-03T23:00:10.631Z,7.77
2023-03-03T23:02:42.841Z,11.33
2023-03-03T23:05:13.862Z,8.53
2023-03-03T23:07:44.793Z,11.53
2023-03-03T23:10:15.454Z,8.40
2023-03-03T23:12:48.834Z,8.53
2023-03-03T23:15:18.525Z,9.73
2023-03-03T23:17:49.307Z,8.13
2023-03-03T23:20:24.181Z,7.60
2023-03-03T23:22:54.997Z,6.90
2023-03-03T23:25:24.499Z,7.40
2023-03-03T23:27:55.809Z,9.00
2023-03-03T23:30:25.155Z,7.40
2023-03-03T23:32:54.348Z,7.00
2023-03-03T23:35:23.771Z,8.80
2023-03-03T23:37:53.133Z,7.40
2023-03-03T23:40:22.076Z,9.37
2023-03-03T23:42:51.431Z,7.83
2023-03-03T23:45:22.007Z,8.87
2023-03-03T23:47:52.675Z,10.43
2023-03-03T23:50:24.250Z,8.40
2023-03-03T23:52:54.680Z,7.13
2023-03-03T23:55:28.726Z,6.73
2023-03-03T23:57:57.586Z,7.20
